sensor_id;sensor_type;location;lat;lon;timestamp;P1;durP1;ratioP1;P2;durP2;ratioP2
26806;SDS011;14380;49.910;6.792;2023-04-25T00:00:53;8.52;;;7.03;;
26806;SDS011;14380;49.910;6.792;2023-04-25T00:03:19;8.55;;;6.97;;
26806;SDS011;14380;49.910;6.792;2023-04-25T00:05:47;14.57;;;7.78;;
26806;SDS011;14380;49.910;6.792;2023-04-25T00:08:13;11.65;;;9.63;;
26806;SDS011;14380;49.910;6.792;2023-04-25T00:10:41;13.95;;;9.20;;
26806;SDS011;14380;49.910;6.792;2023-04-25T00:13:08;11.82;;;8.90;;
26806;SDS011;14380;49.910;6.792;2023-04-25T00:15:36;9.38;;;7.78;;
26806;SDS011;14380;49.910;6.792;2023-04-25T00:18:03;9.88;;;8.57;;
26806;SDS011;14380;49.910;6.792;2023-04-25T00:20:30;9.15;;;7.85;;
26806;SDS011;14380;49.910;6.792;2023-04-25T00:22:57;11.93;;;8.80;;
26806;SDS011;14380;49.910;6.792;2023-04-25T00:25:23;10.93;;;8.93;;
26806;SDS011;14380;49.910;6.792;2023-04-25T00:27:52;12.25;;;9.25;;
26806;SDS011;14380;49.910;6.792;2023-04-25T00:30:18;11.95;;;8.88;;
26806;SDS011;14380;49.910;6.792;2023-04-25T00:32:45;14.52;;;10.05;;
26806;SDS011;14380;49.910;6.792;2023-04-25T00:35:11;10.30;;;8.80;;
26806;SDS011;14380;49.910;6.792;2023-04-25T00:37:38;10.63;;;8.98;;
26806;SDS011;14380;49.910;6.792;2023-04-25T00:40:06;12.38;;;8.98;;
26806;SDS011;14380;49.910;6.792;2023-04-25T00:42:33;11.68;;;9.02;;
26806;SDS011;14380;49.910;6.792;2023-04-25T00:45:03;15.18;;;9.35;;
26806;SDS011;14380;49.910;6.792;2023-04-25T00:47:31;10.73;;;8.93;;
26806;SDS011;14380;49.910;6.792;2023-04-25T00:49:59;10.43;;;8.88;;
26806;SDS011;14380;49.910;6.792;2023-04-25T00:52:25;11.65;;;8.90;;
26806;SDS011;14380;49.910;6.792;2023-04-25T00:54:52;13.43;;;9.18;;
26806;SDS011;14380;49.910;6.792;2023-04-25T00:57:18;10.60;;;8.57;;
26806;SDS011;14380;49.910;6.792;2023-04-25T00:59:45;12.68;;;8.93;;
26806;SDS011;14380;49.910;6.792;2023-04-25T01:02:13;11.90;;;9.60;;
26806;SDS011;14380;49.910;6.792;2023-04-25T01:04:40;15.38;;;9.73;;
26806;SDS011;14380;49.910;6.792;2023-04-25T01:07:07;11.38;;;9.57;;
26806;SDS011;14380;49.910;6.792;2023-04-25T01:09:33;12.35;;;10.15;;
26806;SDS011;14380;49.910;6.792;2023-04-25T01:12:01;15.73;;;10.45;;
26806;SDS011;14380;49.910;6.792;2023-04-25T01:14:28;13.00;;;10.32;;
26806;SDS011;14380;49.910;6.792;2023-04-25T01:16:54;14.73;;;10.30;;
26806;SDS011;14380;49.910;6.792;2023-04-25T01:19:23;18.98;;;10.43;;
26806;SDS011;14380;49.910;6.792;2023-04-25T01:21:51;12.48;;;10.25;;
26806;SDS011;14380;49.910;6.792;2023-04-25T01:24:18;11.38;;;9.20;;
26806;SDS011;14380;49.910;6.792;2023-04-25T01:26:45;11.73;;;9.70;;
26806;SDS011;14380;49.910;6.792;2023-04-25T01:29:14;12.27;;;10.60;;
26806;SDS011;14380;49.910;6.792;2023-04-25T01:31:41;12.35;;;10.70;;
26806;SDS011;14380;49.910;6.792;2023-04-25T01:34:09;12.68;;;10.45;;
26806;SDS011;14380;49.910;6.792;2023-04-25T01:36:35;14.38;;;10.73;;
26806;SDS011;14380;49.910;6.792;2023-04-25T01:39:03;12.18;;;9.50;;
26806;SDS011;14380;49.910;6.792;2023-04-25T01:41:31;14.93;;;10.55;;
26806;SDS011;14380;49.910;6.792;2023-04-25T01:43:59;13.85;;;10.98;;
26806;SDS011;14380;49.910;6.792;2023-04-25T01:46:27;14.60;;;10.82;;
26806;SDS011;14380;49.910;6.792;2023-04-25T01:48:53;14.50;;;11.38;;
26806;SDS011;14380;49.910;6.792;2023-04-25T01:51:20;15.50;;;12.02;;
26806;SDS011;14380;49.910;6.792;2023-04-25T01:53:47;15.77;;;12.10;;
26806;SDS011;14380;49.910;6.792;2023-04-25T01:56:15;17.75;;;12.82;;
26806;SDS011;14380;49.910;6.792;2023-04-25T01:58:41;14.80;;;11.90;;
26806;SDS011;14380;49.910;6.792;2023-04-25T02:01:08;17.60;;;12.75;;
26806;SDS011;14380;49.910;6.792;2023-04-25T02:03:34;16.70;;;11.90;;
26806;SDS011;14380;49.910;6.792;2023-04-25T02:06:02;22.27;;;12.25;;
26806;SDS011;14380;49.910;6.792;2023-04-25T02:08:29;14.52;;;11.13;;
26806;SDS011;14380;49.910;6.792;2023-04-25T02:10:56;13.35;;;10.93;;
26806;SDS011;14380;49.910;6.792;2023-04-25T02:13:24;19.73;;;11.57;;
26806;SDS011;14380;49.910;6.792;2023-04-25T02:15:50;15.75;;;12.52;;
26806;SDS011;14380;49.910;6.792;2023-04-25T02:18:17;15.02;;;10.75;;
26806;SDS011;14380;49.910;6.792;2023-04-25T02:20:44;17.17;;;11.90;;
26806;SDS011;14380;49.910;6.792;2023-04-25T02:23:11;15.85;;;11.25;;
26806;SDS011;14380;49.910;6.792;2023-04-25T02:25:37;14.82;;;10.75;;
26806;SDS011;14380;49.910;6.792;2023-04-25T02:28:04;18.02;;;11.55;;
26806;SDS011;14380;49.910;6.792;2023-04-25T02:30:32;14.85;;;10.75;;
26806;SDS011;14380;49.910;6.792;2023-04-25T02:32:58;13.85;;;11.07;;
26806;SDS011;14380;49.910;6.792;2023-04-25T02:35:25;12.32;;;10.23;;
26806;SDS011;14380;49.910;6.792;2023-04-25T02:37:52;14.32;;;12.02;;
26806;SDS011;14380;49.910;6.792;2023-04-25T02:40:18;16.73;;;13.45;;
26806;SDS011;14380;49.910;6.792;2023-04-25T02:42:45;15.98;;;12.38;;
26806;SDS011;14380;49.910;6.792;2023-04-25T02:45:12;14.43;;;11.63;;
26806;SDS011;14380;49.910;6.792;2023-04-25T02:47:40;14.48;;;10.85;;
26806;SDS011;14380;49.910;6.792;2023-04-25T02:50:07;13.48;;;10.70;;
26806;SDS011;14380;49.910;6.792;2023-04-25T02:52:33;16.55;;;11.98;;
26806;SDS011;14380;49.910;6.792;2023-04-25T02:55:00;17.85;;;12.88;;
26806;SDS011;14380;49.910;6.792;2023-04-25T02:57:26;17.42;;;13.93;;
26806;SDS011;14380;49.910;6.792;2023-04-25T02:59:53;22.98;;;15.35;;
26806;SDS011;14380;49.910;6.792;2023-04-25T03:02:20;21.90;;;15.73;;
26806;SDS011;14380;49.910;6.792;2023-04-25T03:04:48;177.00;;;17.25;;
26806;SDS011;14380;49.910;6.792;2023-04-25T03:07:15;28.38;;;13.25;;
26806;SDS011;14380;49.910;6.792;2023-04-25T03:09:41;21.02;;;12.98;;
26806;SDS011;14380;49.910;6.792;2023-04-25T03:12:08;21.25;;;13.80;;
26806;SDS011;14380;49.910;6.792;2023-04-25T03:14:35;16.83;;;12.45;;
26806;SDS011;14380;49.910;6.792;2023-04-25T03:17:02;17.50;;;13.77;;
26806;SDS011;14380;49.910;6.792;2023-04-25T03:19:28;18.17;;;13.93;;
26806;SDS011;14380;49.910;6.792;2023-04-25T03:21:56;18.50;;;13.65;;
26806;SDS011;14380;49.910;6.792;2023-04-25T03:24:23;19.23;;;14.25;;
26806;SDS011;14380;49.910;6.792;2023-04-25T03:26:49;21.08;;;14.73;;
26806;SDS011;14380;49.910;6.792;2023-04-25T03:29:16;140.85;;;16.80;;
26806;SDS011;14380;49.910;6.792;2023-04-25T03:31:42;26.02;;;14.55;;
26806;SDS011;14380;49.910;6.792;2023-04-25T03:34:09;21.52;;;13.88;;
26806;SDS011;14380;49.910;6.792;2023-04-25T03:36:35;16.75;;;13.30;;
26806;SDS011;14380;49.910;6.792;2023-04-25T03:39:03;21.00;;;14.98;;
26806;SDS011;14380;49.910;6.792;2023-04-25T03:41:31;19.67;;;14.40;;
26806;SDS011;14380;49.910;6.792;2023-04-25T03:43:57;22.27;;;15.15;;
26806;SDS011;14380;49.910;6.792;2023-04-25T03:46:24;19.45;;;14.40;;
26806;SDS011;14380;49.910;6.792;2023-04-25T03:48:50;19.10;;;13.88;;
26806;SDS011;14380;49.910;6.792;2023-04-25T03:51:17;18.92;;;12.68;;
26806;SDS011;14380;49.910;6.792;2023-04-25T03:53:43;16.98;;;12.85;;
26806;SDS011;14380;49.910;6.792;2023-04-25T03:56:11;20.15;;;15.40;;
26806;SDS011;14380;49.910;6.792;2023-04-25T03:58:38;19.45;;;15.18;;
26806;SDS011;14380;49.910;6.792;2023-04-25T04:01:04;22.15;;;16.92;;
26806;SDS011;14380;49.910;6.792;2023-04-25T04:03:32;25.67;;;16.65;;
26806;SDS011;14380;49.910;6.792;2023-04-25T04:06:04;24.60;;;17.40;;
26806;SDS011;14380;49.910;6.792;2023-04-25T04:08:35;24.33;;;16.65;;
26806;SDS011;14380;49.910;6.792;2023-04-25T04:11:02;22.88;;;16.85;;
26806;SDS011;14380;49.910;6.792;2023-04-25T04:13:30;24.15;;;16.95;;
26806;SDS011;14380;49.910;6.792;2023-04-25T04:15:56;22.35;;;17.35;;
26806;SDS011;14380;49.910;6.792;2023-04-25T04:18:23;23.00;;;17.23;;
26806;SDS011;14380;49.910;6.792;2023-04-25T04:20:50;22.75;;;16.05;;
26806;SDS011;14380;49.910;6.792;2023-04-25T04:23:16;22.10;;;17.27;;
26806;SDS011;14380;49.910;6.792;2023-04-25T04:25:43;22.10;;;16.58;;
26806;SDS011;14380;49.910;6.792;2023-04-25T04:28:10;24.55;;;18.02;;
26806;SDS011;14380;49.910;6.792;2023-04-25T04:30:37;19.88;;;14.68;;
26806;SDS011;14380;49.910;6.792;2023-04-25T04:33:04;19.52;;;14.27;;
26806;SDS011;14380;49.910;6.792;2023-04-25T04:35:32;23.40;;;15.55;;
26806;SDS011;14380;49.910;6.792;2023-04-25T04:37:59;19.88;;;14.23;;
26806;SDS011;14380;49.910;6.792;2023-04-25T04:40:26;19.73;;;15.73;;
26806;SDS011;14380;49.910;6.792;2023-04-25T04:42:52;22.73;;;16.98;;
26806;SDS011;14380;49.910;6.792;2023-04-25T04:45:21;24.88;;;16.80;;
26806;SDS011;14380;49.910;6.792;2023-04-25T04:47:49;25.05;;;15.45;;
26806;SDS011;14380;49.910;6.792;2023-04-25T04:50:16;19.88;;;15.07;;
26806;SDS011;14380;49.910;6.792;2023-04-25T04:52:43;25.00;;;15.30;;
26806;SDS011;14380;49.910;6.792;2023-04-25T04:55:09;23.60;;;15.20;;
26806;SDS011;14380;49.910;6.792;2023-04-25T04:57:36;20.45;;;14.32;;
26806;SDS011;14380;49.910;6.792;2023-04-25T05:00:04;25.20;;;17.05;;
26806;SDS011;14380;49.910;6.792;2023-04-25T05:02:33;25.85;;;15.77;;
26806;SDS011;14380;49.910;6.792;2023-04-25T05:05:00;21.92;;;16.08;;
26806;SDS011;14380;49.910;6.792;2023-04-25T05:07:27;21.67;;;15.32;;
26806;SDS011;14380;49.910;6.792;2023-04-25T05:09:53;25.42;;;16.45;;
26806;SDS011;14380;49.910;6.792;2023-04-25T05:12:20;21.65;;;15.65;;
26806;SDS011;14380;49.910;6.792;2023-04-25T05:14:46;22.00;;;16.20;;
26806;SDS011;14380;49.910;6.792;2023-04-25T05:17:13;19.63;;;14.85;;
26806;SDS011;14380;49.910;6.792;2023-04-25T05:19:40;26.08;;;18.13;;
26806;SDS011;14380;49.910;6.792;2023-04-25T05:22:08;21.17;;;16.55;;
26806;SDS011;14380;49.910;6.792;2023-04-25T05:24:34;23.38;;;17.55;;
26806;SDS011;14380;49.910;6.792;2023-04-25T05:27:01;22.95;;;18.00;;
26806;SDS011;14380;49.910;6.792;2023-04-25T05:29:27;22.15;;;17.88;;
26806;SDS011;14380;49.910;6.792;2023-04-25T05:31:54;20.42;;;16.08;;
26806;SDS011;14380;49.910;6.792;2023-04-25T05:34:21;22.77;;;17.25;;
26806;SDS011;14380;49.910;6.792;2023-04-25T05:36:48;22.48;;;16.60;;
26806;SDS011;14380;49.910;6.792;2023-04-25T05:39:16;23.58;;;17.27;;
26806;SDS011;14380;49.910;6.792;2023-04-25T05:41:42;24.70;;;18.00;;
26806;SDS011;14380;49.910;6.792;2023-04-25T05:44:09;24.13;;;18.70;;
26806;SDS011;14380;49.910;6.792;2023-04-25T05:46:35;22.70;;;17.15;;
26806;SDS011;14380;49.910;6.792;2023-04-25T05:49:02;23.33;;;16.70;;
26806;SDS011;14380;49.910;6.792;2023-04-25T05:51:29;19.58;;;15.90;;
26806;SDS011;14380;49.910;6.792;2023-04-25T05:53:56;25.30;;;17.65;;
26806;SDS011;14380;49.910;6.792;2023-04-25T05:56:24;22.55;;;17.42;;
26806;SDS011;14380;49.910;6.792;2023-04-25T05:58:51;24.80;;;16.65;;
26806;SDS011;14380;49.910;6.792;2023-04-25T06:01:17;23.77;;;17.48;;
26806;SDS011;14380;49.910;6.792;2023-04-25T06:03:44;24.15;;;17.52;;
26806;SDS011;14380;49.910;6.792;2023-04-25T06:06:11;20.52;;;15.73;;
26806;SDS011;14380;49.910;6.792;2023-04-25T06:08:37;21.95;;;16.27;;
26806;SDS011;14380;49.910;6.792;2023-04-25T06:11:04;21.48;;;13.85;;
26806;SDS011;14380;49.910;6.792;2023-04-25T06:13:32;22.42;;;12.32;;
26806;SDS011;14380;49.910;6.792;2023-04-25T06:15:59;19.17;;;12.50;;
26806;SDS011;14380;49.910;6.792;2023-04-25T06:18:25;22.15;;;13.23;;
26806;SDS011;14380;49.910;6.792;2023-04-25T06:20:52;17.38;;;13.23;;
26806;SDS011;14380;49.910;6.792;2023-04-25T06:23:18;20.45;;;13.13;;
26806;SDS011;14380;49.910;6.792;2023-04-25T06:25:45;21.25;;;13.00;;
26806;SDS011;14380;49.910;6.792;2023-04-25T06:28:12;19.42;;;12.02;;
26806;SDS011;14380;49.910;6.792;2023-04-25T06:30:39;17.40;;;12.07;;
26806;SDS011;14380;49.910;6.792;2023-04-25T06:33:06;21.98;;;12.40;;
26806;SDS011;14380;49.910;6.792;2023-04-25T06:35:33;19.92;;;11.90;;
26806;SDS011;14380;49.910;6.792;2023-04-25T06:38:00;23.70;;;12.65;;
26806;SDS011;14380;49.910;6.792;2023-04-25T06:40:26;23.35;;;11.52;;
26806;SDS011;14380;49.910;6.792;2023-04-25T06:42:53;23.52;;;13.55;;
26806;SDS011;14380;49.910;6.792;2023-04-25T06:45:19;25.13;;;12.82;;
26806;SDS011;14380;49.910;6.792;2023-04-25T06:47:47;24.55;;;11.80;;
26806;SDS011;14380;49.910;6.792;2023-04-25T06:50:14;25.42;;;12.75;;
26806;SDS011;14380;49.910;6.792;2023-04-25T06:52:40;21.35;;;11.68;;
26806;SDS011;14380;49.910;6.792;2023-04-25T06:55:07;23.70;;;12.57;;
26806;SDS011;14380;49.910;6.792;2023-04-25T06:57:34;25.05;;;12.00;;
26806;SDS011;14380;49.910;6.792;2023-04-25T07:00:01;19.65;;;9.60;;
26806;SDS011;14380;49.910;6.792;2023-04-25T07:02:30;15.60;;;9.00;;
26806;SDS011;14380;49.910;6.792;2023-04-25T07:04:58;18.92;;;8.63;;
26806;SDS011;14380;49.910;6.792;2023-04-25T07:07:24;16.15;;;8.60;;
26806;SDS011;14380;49.910;6.792;2023-04-25T07:09:51;15.23;;;7.35;;
26806;SDS011;14380;49.910;6.792;2023-04-25T07:12:18;20.33;;;7.95;;
26806;SDS011;14380;49.910;6.792;2023-04-25T07:14:44;17.02;;;7.57;;
26806;SDS011;14380;49.910;6.792;2023-04-25T07:17:11;11.80;;;6.68;;
26806;SDS011;14380;49.910;6.792;2023-04-25T07:19:38;13.55;;;6.28;;
26806;SDS011;14380;49.910;6.792;2023-04-25T07:22:06;12.07;;;6.30;;
26806;SDS011;14380;49.910;6.792;2023-04-25T07:24:32;11.80;;;5.53;;
26806;SDS011;14380;49.910;6.792;2023-04-25T07:26:59;13.40;;;6.65;;
26806;SDS011;14380;49.910;6.792;2023-04-25T07:29:26;12.30;;;5.60;;
26806;SDS011;14380;49.910;6.792;2023-04-25T07:31:55;15.32;;;6.55;;
26806;SDS011;14380;49.910;6.792;2023-04-25T07:34:21;17.52;;;5.78;;
26806;SDS011;14380;49.910;6.792;2023-04-25T07:36:48;13.32;;;5.97;;
26806;SDS011;14380;49.910;6.792;2023-04-25T07:39:15;15.20;;;5.13;;
26806;SDS011;14380;49.910;6.792;2023-04-25T07:41:42;13.10;;;5.30;;
26806;SDS011;14380;49.910;6.792;2023-04-25T07:44:09;9.18;;;4.95;;
26806;SDS011;14380;49.910;6.792;2023-04-25T07:46:35;12.70;;;4.85;;
26806;SDS011;14380;49.910;6.792;2023-04-25T07:49:02;9.75;;;4.68;;
26806;SDS011;14380;49.910;6.792;2023-04-25T07:51:28;9.27;;;4.68;;
26806;SDS011;14380;49.910;6.792;2023-04-25T07:53:55;8.80;;;4.47;;
26806;SDS011;14380;49.910;6.792;2023-04-25T07:56:23;10.82;;;5.35;;
26806;SDS011;14380;49.910;6.792;2023-04-25T07:58:49;7.70;;;4.20;;
26806;SDS011;14380;49.910;6.792;2023-04-25T08:01:16;9.65;;;4.50;;
26806;SDS011;14380;49.910;6.792;2023-04-25T08:03:42;7.28;;;4.10;;
26806;SDS011;14380;49.910;6.792;2023-04-25T08:06:09;8.02;;;4.30;;
26806;SDS011;14380;49.910;6.792;2023-04-25T08:08:36;15.30;;;4.70;;
26806;SDS011;14380;49.910;6.792;2023-04-25T08:11:02;7.65;;;4.32;;
26806;SDS011;14380;49.910;6.792;2023-04-25T08:13:30;6.88;;;4.10;;
26806;SDS011;14380;49.910;6.792;2023-04-25T08:15:57;6.15;;;3.58;;
26806;SDS011;14380;49.910;6.792;2023-04-25T08:18:23;9.23;;;3.75;;
26806;SDS011;14380;49.910;6.792;2023-04-25T08:20:50;7.82;;;3.72;;
26806;SDS011;14380;49.910;6.792;2023-04-25T08:23:16;6.90;;;3.10;;
26806;SDS011;14380;49.910;6.792;2023-04-25T08:25:43;12.65;;;4.28;;
26806;SDS011;14380;49.910;6.792;2023-04-25T08:28:09;7.57;;;3.38;;
26806;SDS011;14380;49.910;6.792;2023-04-25T08:30:37;8.70;;;3.60;;
26806;SDS011;14380;49.910;6.792;2023-04-25T08:33:04;7.72;;;3.65;;
26806;SDS011;14380;49.910;6.792;2023-04-25T08:35:31;7.40;;;3.10;;
26806;SDS011;14380;49.910;6.792;2023-04-25T08:37:58;8.35;;;3.20;;
26806;SDS011;14380;49.910;6.792;2023-04-25T08:40:26;11.32;;;3.10;;
26806;SDS011;14380;49.910;6.792;2023-04-25T08:42:55;5.90;;;3.72;;
26806;SDS011;14380;49.910;6.792;2023-04-25T08:45:24;6.90;;;3.83;;
26806;SDS011;14380;49.910;6.792;2023-04-25T08:47:53;5.88;;;3.00;;
26806;SDS011;14380;49.910;6.792;2023-04-25T08:50:22;7.32;;;3.78;;
26806;SDS011;14380;49.910;6.792;2023-04-25T08:52:51;9.23;;;4.32;;
26806;SDS011;14380;49.910;6.792;2023-04-25T08:55:21;7.43;;;3.67;;
26806;SDS011;14380;49.910;6.792;2023-04-25T08:57:48;11.75;;;4.30;;
26806;SDS011;14380;49.910;6.792;2023-04-25T09:00:16;10.25;;;3.88;;
26806;SDS011;14380;49.910;6.792;2023-04-25T09:02:44;12.75;;;3.75;;
26806;SDS011;14380;49.910;6.792;2023-04-25T09:05:14;8.00;;;4.38;;
26806;SDS011;14380;49.910;6.792;2023-04-25T09:07:40;7.47;;;3.60;;
26806;SDS011;14380;49.910;6.792;2023-04-25T09:10:07;6.22;;;3.35;;
26806;SDS011;14380;49.910;6.792;2023-04-25T09:12:35;13.45;;;4.70;;
26806;SDS011;14380;49.910;6.792;2023-04-25T09:15:03;7.35;;;3.65;;
26806;SDS011;14380;49.910;6.792;2023-04-25T09:17:31;6.90;;;3.67;;
26806;SDS011;14380;49.910;6.792;2023-04-25T09:20:05;8.35;;;3.85;;
26806;SDS011;14380;49.910;6.792;2023-04-25T09:22:36;8.68;;;3.80;;
26806;SDS011;14380;49.910;6.792;2023-04-25T09:25:07;9.77;;;3.60;;
26806;SDS011;14380;49.910;6.792;2023-04-25T09:27:35;11.80;;;3.78;;
26806;SDS011;14380;49.910;6.792;2023-04-25T09:30:02;9.25;;;3.83;;
26806;SDS011;14380;49.910;6.792;2023-04-25T09:32:29;8.27;;;3.88;;
26806;SDS011;14380;49.910;6.792;2023-04-25T09:34:57;8.13;;;3.78;;
26806;SDS011;14380;49.910;6.792;2023-04-25T09:37:24;7.55;;;3.15;;
26806;SDS011;14380;49.910;6.792;2023-04-25T09:39:54;9.38;;;3.88;;
26806;SDS011;14380;49.910;6.792;2023-04-25T09:42:23;8.70;;;3.60;;
26806;SDS011;14380;49.910;6.792;2023-04-25T09:44:51;11.38;;;4.10;;
26806;SDS011;14380;49.910;6.792;2023-04-25T09:47:18;12.57;;;3.50;;
26806;SDS011;14380;49.910;6.792;2023-04-25T09:49:47;6.35;;;2.88;;
26806;SDS011;14380;49.910;6.792;2023-04-25T09:52:14;11.57;;;4.30;;
26806;SDS011;14380;49.910;6.792;2023-04-25T09:54:42;10.57;;;4.20;;
26806;SDS011;14380;49.910;6.792;2023-04-25T09:57:11;10.10;;;3.60;;
26806;SDS011;14380;49.910;6.792;2023-04-25T09:59:39;14.57;;;4.05;;
26806;SDS011;14380;49.910;6.792;2023-04-25T10:02:09;14.85;;;3.70;;
26806;SDS011;14380;49.910;6.792;2023-04-25T10:04:37;14.77;;;4.32;;
26806;SDS011;14380;49.910;6.792;2023-04-25T10:07:05;11.77;;;3.78;;
26806;SDS011;14380;49.910;6.792;2023-04-25T10:09:32;10.38;;;2.80;;
26806;SDS011;14380;49.910;6.792;2023-04-25T10:12:00;12.75;;;3.38;;
26806;SDS011;14380;49.910;6.792;2023-04-25T10:14:28;12.82;;;3.80;;
26806;SDS011;14380;49.910;6.792;2023-04-25T10:16:55;14.45;;;3.70;;
26806;SDS011;14380;49.910;6.792;2023-04-25T10:19:24;12.00;;;3.15;;
26806;SDS011;14380;49.910;6.792;2023-04-25T10:21:52;10.55;;;3.40;;
26806;SDS011;14380;49.910;6.792;2023-04-25T10:24:20;11.30;;;3.38;;
26806;SDS011;14380;49.910;6.792;2023-04-25T10:26:47;10.98;;;3.40;;
26806;SDS011;14380;49.910;6.792;2023-04-25T10:29:16;12.00;;;3.40;;
26806;SDS011;14380;49.910;6.792;2023-04-25T10:31:50;13.10;;;3.45;;
26806;SDS011;14380;49.910;6.792;2023-04-25T10:34:16;6.93;;;3.33;;
26806;SDS011;14380;49.910;6.792;2023-04-25T10:36:46;12.65;;;3.35;;
26806;SDS011;14380;49.910;6.792;2023-04-25T10:39:20;7.57;;;3.35;;
26806;SDS011;14380;49.910;6.792;2023-04-25T10:41:52;10.43;;;2.60;;
26806;SDS011;14380;49.910;6.792;2023-04-25T10:44:21;9.27;;;3.22;;
26806;SDS011;14380;49.910;6.792;2023-04-25T10:46:47;18.60;;;3.60;;
26806;SDS011;14380;49.910;6.792;2023-04-25T10:49:28;11.20;;;3.05;;
26806;SDS011;14380;49.910;6.792;2023-04-25T10:52:10;15.38;;;3.65;;
26806;SDS011;14380;49.910;6.792;2023-04-25T10:54:43;10.63;;;2.83;;
26806;SDS011;14380;49.910;6.792;2023-04-25T10:57:28;12.07;;;3.55;;
26806;SDS011;14380;49.910;6.792;2023-04-25T11:00:00;14.05;;;3.30;;
26806;SDS011;14380;49.910;6.792;2023-04-25T11:02:31;13.23;;;3.65;;
26806;SDS011;14380;49.910;6.792;2023-04-25T11:04:58;14.85;;;3.90;;
26806;SDS011;14380;49.910;6.792;2023-04-25T11:07:28;10.20;;;4.10;;
26806;SDS011;14380;49.910;6.792;2023-04-25T11:10:01;11.88;;;4.25;;
26806;SDS011;14380;49.910;6.792;2023-04-25T11:12:29;10.07;;;3.88;;
26806;SDS011;14380;49.910;6.792;2023-04-25T11:14:59;11.15;;;2.83;;
26806;SDS011;14380;49.910;6.792;2023-04-25T11:17:27;17.58;;;3.72;;
26806;SDS011;14380;49.910;6.792;2023-04-25T11:19:55;10.13;;;3.30;;
26806;SDS011;14380;49.910;6.792;2023-04-25T11:22:22;9.45;;;3.13;;
26806;SDS011;14380;49.910;6.792;2023-04-25T11:24:49;12.32;;;3.20;;
26806;SDS011;14380;49.910;6.792;2023-04-25T11:27:16;12.30;;;3.20;;
26806;SDS011;14380;49.910;6.792;2023-04-25T11:29:43;7.80;;;3.20;;
26806;SDS011;14380;49.910;6.792;2023-04-25T11:32:09;9.40;;;2.70;;
26806;SDS011;14380;49.910;6.792;2023-04-25T11:34:36;7.18;;;3.15;;
26806;SDS011;14380;49.910;6.792;2023-04-25T11:37:04;12.50;;;3.53;;
26806;SDS011;14380;49.910;6.792;2023-04-25T11:39:31;12.32;;;2.90;;
26806;SDS011;14380;49.910;6.792;2023-04-25T11:41:58;7.20;;;2.92;;
26806;SDS011;14380;49.910;6.792;2023-04-25T11:44:26;8.27;;;2.22;;
26806;SDS011;14380;49.910;6.792;2023-04-25T11:46:52;7.82;;;2.35;;
26806;SDS011;14380;49.910;6.792;2023-04-25T11:49:19;7.90;;;2.88;;
26806;SDS011;14380;49.910;6.792;2023-04-25T11:51:47;7.90;;;2.92;;
26806;SDS011;14380;49.910;6.792;2023-04-25T11:54:15;8.85;;;3.00;;
26806;SDS011;14380;49.910;6.792;2023-04-25T11:56:42;13.10;;;2.70;;
26806;SDS011;14380;49.910;6.792;2023-04-25T11:59:10;6.25;;;2.03;;
26806;SDS011;14380;49.910;6.792;2023-04-25T12:01:39;10.63;;;2.83;;
26806;SDS011;14380;49.910;6.792;2023-04-25T12:04:10;8.40;;;2.60;;
26806;SDS011;14380;49.910;6.792;2023-04-25T12:06:38;7.63;;;1.75;;
26806;SDS011;14380;49.910;6.792;2023-04-25T12:09:07;11.10;;;1.80;;
26806;SDS011;14380;49.910;6.792;2023-04-25T12:11:41;8.40;;;2.15;;
26806;SDS011;14380;49.910;6.792;2023-04-25T12:14:08;6.95;;;2.40;;
26806;SDS011;14380;49.910;6.792;2023-04-25T12:16:42;8.10;;;2.58;;
26806;SDS011;14380;49.910;6.792;2023-04-25T12:19:09;7.13;;;2.35;;
26806;SDS011;14380;49.910;6.792;2023-04-25T12:21:36;8.23;;;2.40;;
26806;SDS011;14380;49.910;6.792;2023-04-25T12:24:09;9.43;;;2.60;;
26806;SDS011;14380;49.910;6.792;2023-04-25T12:26:51;7.55;;;2.40;;
26806;SDS011;14380;49.910;6.792;2023-04-25T12:29:19;10.23;;;2.42;;
26806;SDS011;14380;49.910;6.792;2023-04-25T12:31:47;6.75;;;1.98;;
26806;SDS011;14380;49.910;6.792;2023-04-25T12:34:14;7.55;;;1.73;;
26806;SDS011;14380;49.910;6.792;2023-04-25T12:36:40;5.75;;;2.42;;
26806;SDS011;14380;49.910;6.792;2023-04-25T12:39:07;9.32;;;2.35;;
26806;SDS011;14380;49.910;6.792;2023-04-25T12:41:35;9.82;;;2.63;;
26806;SDS011;14380;49.910;6.792;2023-04-25T12:44:04;8.32;;;2.38;;
26806;SDS011;14380;49.910;6.792;2023-04-25T12:46:30;15.10;;;3.10;;
26806;SDS011;14380;49.910;6.792;2023-04-25T12:48:57;6.75;;;2.03;;
26806;SDS011;14380;49.910;6.792;2023-04-25T12:51:23;8.25;;;2.00;;
26806;SDS011;14380;49.910;6.792;2023-04-25T12:53:51;7.40;;;2.47;;
26806;SDS011;14380;49.910;6.792;2023-04-25T12:56:18;5.90;;;1.90;;
26806;SDS011;14380;49.910;6.792;2023-04-25T12:58:44;11.70;;;2.78;;
26806;SDS011;14380;49.910;6.792;2023-04-25T13:01:12;9.32;;;2.47;;
26806;SDS011;14380;49.910;6.792;2023-04-25T13:03:39;7.70;;;2.40;;
26806;SDS011;14380;49.910;6.792;2023-04-25T13:06:06;9.75;;;2.10;;
26806;SDS011;14380;49.910;6.792;2023-04-25T13:08:33;11.55;;;2.70;;
26806;SDS011;14380;49.910;6.792;2023-04-25T13:11:00;8.00;;;2.20;;
26806;SDS011;14380;49.910;6.792;2023-04-25T13:13:26;5.00;;;1.73;;
26806;SDS011;14380;49.910;6.792;2023-04-25T13:15:53;6.93;;;2.67;;
26806;SDS011;14380;49.910;6.792;2023-04-25T13:18:21;9.55;;;2.10;;
26806;SDS011;14380;49.910;6.792;2023-04-25T13:20:51;5.75;;;2.00;;
26806;SDS011;14380;49.910;6.792;2023-04-25T13:23:17;6.60;;;1.60;;
26806;SDS011;14380;49.910;6.792;2023-04-25T13:25:45;6.45;;;2.17;;
26806;SDS011;14380;49.910;6.792;2023-04-25T13:28:11;4.43;;;1.75;;
26806;SDS011;14380;49.910;6.792;2023-04-25T13:30:38;6.82;;;2.13;;
26806;SDS011;14380;49.910;6.792;2023-04-25T13:33:05;8.20;;;1.80;;
26806;SDS011;14380;49.910;6.792;2023-04-25T13:35:33;6.13;;;1.75;;
26806;SDS011;14380;49.910;6.792;2023-04-25T13:38:00;4.90;;;1.75;;
26806;SDS011;14380;49.910;6.792;2023-04-25T13:40:27;7.13;;;1.95;;
26806;SDS011;14380;49.910;6.792;2023-04-25T13:42:54;9.10;;;2.63;;
26806;SDS011;14380;49.910;6.792;2023-04-25T13:45:21;10.60;;;3.50;;
26806;SDS011;14380;49.910;6.792;2023-04-25T13:47:48;8.85;;;2.35;;
26806;SDS011;14380;49.910;6.792;2023-04-25T13:50:15;7.82;;;3.83;;
26806;SDS011;14380;49.910;6.792;2023-04-25T13:52:43;6.93;;;2.05;;
26806;SDS011;14380;49.910;6.792;2023-04-25T13:55:10;4.60;;;1.58;;
26806;SDS011;14380;49.910;6.792;2023-04-25T13:57:36;13.23;;;2.28;;
26806;SDS011;14380;49.910;6.792;2023-04-25T14:00:04;5.97;;;2.05;;
26806;SDS011;14380;49.910;6.792;2023-04-25T14:02:33;7.53;;;1.95;;
26806;SDS011;14380;49.910;6.792;2023-04-25T14:05:00;10.60;;;1.85;;
26806;SDS011;14380;49.910;6.792;2023-04-25T14:07:27;6.75;;;1.85;;
26806;SDS011;14380;49.910;6.792;2023-04-25T14:09:55;10.65;;;2.35;;
26806;SDS011;14380;49.910;6.792;2023-04-25T14:12:22;9.77;;;2.40;;
26806;SDS011;14380;49.910;6.792;2023-04-25T14:14:48;8.70;;;1.88;;
26806;SDS011;14380;49.910;6.792;2023-04-25T14:17:15;7.28;;;2.55;;
26806;SDS011;14380;49.910;6.792;2023-04-25T14:19:41;8.13;;;1.63;;
26806;SDS011;14380;49.910;6.792;2023-04-25T14:22:10;6.13;;;1.67;;
26806;SDS011;14380;49.910;6.792;2023-04-25T14:24:40;7.75;;;2.17;;
26806;SDS011;14380;49.910;6.792;2023-04-25T14:27:09;8.15;;;2.17;;
26806;SDS011;14380;49.910;6.792;2023-04-25T14:29:36;7.03;;;2.30;;
26806;SDS011;14380;49.910;6.792;2023-04-25T14:32:03;11.63;;;2.83;;
26806;SDS011;14380;49.910;6.792;2023-04-25T14:34:30;5.30;;;2.03;;